Les résultats vous sont offerts par

Télécharger en pdf

Le tour des Commères - 25 km - Sirod - 29/10/2017 - 214 classés / 227 inscrits
Place Nom Prénom Dossard Temps Ecart/1ier Catégorie Sexe Club
1  LALOUETTE  LAURENT 103 01:54:28   SE M  
2  BOUILLET  MICKAEL 170 01:54:29 + 00:00:01 M1 M  RUNNING CONSEIL
3  BOURGEOIS  JEAN PAUL 88 01:56:49 + 00:02:21 M2 M  ESPRIT TRAIL AMIS
4  BOURGEOIS  IVAN 126 01:57:55 + 00:03:27 M1 M  LONS ATHLE 39
5  BOUILLET  CEDRIC 94 01:58:13 + 00:03:45 M1 M  RUNNING CONSEIL 39
6  PRIN  STEVE 78 01:58:47 + 00:04:19 SE M  SPORT PASSION PREMANON
7  PASERO  MATHIEU 328 02:02:13 + 00:07:45 SE M  
8  BOURDIN  JEROME 194 02:04:05 + 00:09:37 SE M  CLUB NAUTIQUE PONTARLIER TRIATHLON
9  MANCHE  MATHIEU 98 02:04:22 + 00:09:54 SE M  
10  CHAUVIN  ALEXANDRE 30 02:04:29 + 00:10:01 SE M  S/L EJCA CHAMPAGNOLE
11  BOURGEOIS  JULIEN 62 02:05:02 + 00:10:34 SE M  TEAM LA GAUDINE
12  TOUSSAINT  VINCENT 145 02:05:30 + 00:11:02 SE M  RUNNING CONSEIL 39
13  VANDELLE  VALENTIN 315 02:06:25 + 00:11:57 JU M  
14  BENAY  CHRISTOPHE 322 02:07:19 + 00:12:51 M2 M  
15  PIARD  GUILLAUME 122 02:07:55 + 00:13:27 SE M  
16  GARBELLOTTO  LUCAS 99 02:08:53 + 00:14:25 SE M  FERRIERES SPORT ATHLE
17  VICHARD  LAURENT 307 02:09:32 + 00:15:04 M1 M  
18  MENESTRIER  BENOIT 113 02:09:33 + 00:15:05 M1 M  
19  BIENAIME  ALEX 1 02:11:18 + 00:16:50 SE M  VO3 MAX
20  BOUDAY  IVAN 306 02:14:14 + 00:19:46 M1 M  
21  CAMELIN  THEO 140 02:16:16 + 00:21:48 ES M  
22  GAILLARD  JULIEN 115 02:16:50 + 00:22:22 SE M  RUNNING CONSEIL 39
23  CLERC  MELINA 91 02:17:06 + 00:22:38 SE F  
24  MAGNIN  FRANCOIS 69 02:19:17 + 00:24:49 SE M  TEAM SPORT 2000 MONTMOROT
25  LABALEC  ANAIS 176 02:20:01 + 00:25:33 SE F  GTV TRIATHON VESOUL
26  BAILLY  FLORIAN 111 02:21:41 + 00:27:13 SE M  TRILION BELFORT
27  DENIAU  CEDRIC 119 02:22:26 + 00:27:58 SE M  
28  GARNIER  MARC 65 02:22:35 + 00:28:07 SE M  
29  VILLET  THIBAUD 51 02:22:42 + 00:28:14 SE M  
30  OLIVIER  RAPHAEL 29 02:22:52 + 00:28:24 M1 M  CHAMPA TRAIL
31  DUMONT  SANDRINE 114 02:23:26 + 00:28:58 SE F  DOLE AC
32  CALLIER  ROBERT 321 02:23:26 + 00:28:58 M3 M  
33  MARGUET  NICOLAS 179 02:23:36 + 00:29:08 SE M  LES AMIS DE LA NATURE
34  KHALFI  BRUNO 193 02:24:06 + 00:29:38 M2 M  HAUT JURA VO3 MAX
35  BONIN  ALEXANDRE 116 02:24:09 + 00:29:41 SE M  TRIATH'LONS
36  GRENARD  MATHILDE 173 02:24:13 + 00:29:45 SE F  HAUT JURA SKI
37  RICHARD  LAURENT 46 02:24:19 + 00:29:51 SE M  MY TRIBE
38  VERGEY  FLORENT 159 02:24:34 + 00:30:06 SE M  
39  TILLIER  MICKAEL 189 02:24:44 + 00:30:16 M1 M  
40  CHAPUIS  SEBASTIEN 5 02:25:16 + 00:30:48 SE M  TRI TEAM VALLEE DE JOUX
41  DE PASQUALIN  LAURENT 187 02:27:01 + 00:32:33 SE M  
42  VILLET  GUILLAUME 36 02:27:09 + 00:32:41 SE M  
43  DANGUY  LAURIC 191 02:28:00 + 00:33:32 SE M  RUNNING CONSEIL
44  MICHALET  PIERRE OLIVIER 93 02:28:05 + 00:33:37 ES M  
45  GRESSET  YANN 309 02:28:59 + 00:34:31 M1 M  
46  SAMLAL  NIZAR 26 02:29:07 + 00:34:39 SE M  
47  ALVES  DANIEL 166 02:29:14 + 00:34:46 SE M  
48  GARIN LAUREL  NICOLAS 38 02:29:33 + 00:35:05 SE M  
49  HESSE  NICOLAS 175 02:30:32 + 00:36:04 SE M  
50  MOURIER  FRANCK 130 02:31:43 + 00:37:15 M1 M  ALL JURA TRAIL
51  CAZEAUD  CELINE 121 02:31:46 + 00:37:18 M1 F  LONS ATHLE 39
52  ECOIFFIER  ARNAUD 329 02:31:57 + 00:37:29 SE M  
53  MALESSARD  MATHIEU 185 02:32:02 + 00:37:34 M1 M  LONS ATHLE 39
54  GIRARD  STEPHANE 312 02:32:14 + 00:37:46 M1 M  
55  PETITHUGUENIN  LAURENT 71 02:32:33 + 00:38:05 M1 M  
56  SARTORIS  DAMIEN 108 02:33:36 + 00:39:08 SE M  
57  PYONBOUTRIT  AURELIEN 128 02:33:42 + 00:39:14 SE M  LONS ATHLE 39
58  HENRIET  DIDIER 180 02:33:48 + 00:39:20 M2 M  
59  PELLETIER  CHRISTIAN 330 02:33:53 + 00:39:25 M2 M  
60  MAREE  JULIEN 192 02:33:58 + 00:39:30 M1 M  RUNNING CONSEIL
61  BARBAUD  VINCENT 143 02:34:30 + 00:40:02 M1 M  CHAMPAGNOLE
62  LONCHAMPT  FRANCK 163 02:34:40 + 00:40:12 M1 M  SKI CLUB PREMANON
63  FERREUX  RAPHAEL 63 02:34:45 + 00:40:17 M1 M  TEAM LA GAUDINE
64  FLAHAUT  MICHAEL 66 02:35:03 + 00:40:35 M1 M  
65  PEGUILLET  THOMAS 304 02:36:03 + 00:41:35 SE M  
66  VOISIN  LAURENCE 158 02:36:05 + 00:41:37 M2 F  
67  BAUD  MATHIEU 333 02:36:25 + 00:41:57 SE M  
68  GROSJEAN  LUDOVIC 124 02:37:50 + 00:43:22 SE M  TEAM GAB ET SPORT BESANCON
69  BOYARD  ERIC 156 02:38:06 + 00:43:38 M1 M  
70  TONNER  JEAN PIERRE 149 02:38:29 + 00:44:01 M2 M  
71  PAGET GOY  CHARLY 37 02:38:29 + 00:44:01 M1 M  SKI CLUB GRANDVAUX
72  RAMAUX  PATRICE 160 02:39:18 + 00:44:50 M1 M  
73  GONZALES  SEBASTIEN 305 02:39:32 + 00:45:04 M1 M  
74  BOTTAZZO  ARNAUD 73 02:39:40 + 00:45:12 M1 M  BOTTAZZO
75  LACROIX  GABRIEL 182 02:40:31 + 00:46:03 M3 M  
76  MARTIN  BENJAMIN 104 02:40:58 + 00:46:30 SE M  
77  BLONDEAU  VIRGINIE 148 02:41:03 + 00:46:35 M1 F  
78  GAVROY  KEVIN 188 02:41:09 + 00:46:41 SE M  
79  TAMBORINI  POLO 230 02:41:23 + 00:46:55 M1 M  
80  PARIS  OLIVIER 87 02:41:37 + 00:47:09 SE M  TRIATH'LONS
81  SCHIAVONE  EMMANUEL 84 02:41:59 + 00:47:31 M2 M  
82  BOURGEOIS  JEAN MARIE 64 02:42:07 + 00:47:39 M3 M  TEAM LA GAUDINE
83  PONCET  CELINE 107 02:42:19 + 00:47:51 SE F  
84  PILLOIX  BAPTISTE 167 02:42:31 + 00:48:03 JU M  
85  GUILLAUME  PATRICK 74 02:42:50 + 00:48:22 M3 M  TRIATH'LONS
86  BAILLY  NOEL 68 02:42:50 + 00:48:22 M3 M  ALL JURA TRAIL
87  GRESSET  FABIEN 118 02:43:45 + 00:49:17 M1 M  
88  LARDERET  THIERRY 152 02:44:08 + 00:49:40 M2 M  ALL SECTION TRAIL
89  FOURNIER  SYLVAIN 3 02:45:05 + 00:50:37 M1 M  
90  GAHERY  CLARISSE 169 02:45:20 + 00:50:52 SE F  
91  POIRRIER  LUCE 2 02:45:23 + 00:50:55 SE F  
92  CUENOT  ESTELLE 134 02:45:59 + 00:51:31 SE F  
93  TOURNIER  VERONIQUE 186 02:46:11 + 00:51:43 M2 F  LONS ATHLE 39
94  FELIX  KARINE 164 02:46:12 + 00:51:44 SE F  LONS ATHLE 39
95  HALBERT  FRANCOIS 20 02:47:20 + 00:52:52 SE M  JURA SUD BIKE
96  FLEURIOT  CLAIRE 67 02:47:35 + 00:53:07 M1 F  
97  MICHAUD  FREDERIC 318 02:47:58 + 00:53:30 M2 M  
98  JADIN  INES 105 02:48:16 + 00:53:48 SE F  
99  MICHEL  GREGORY 75 02:48:19 + 00:53:51 M1 M  S/L EJCA CHAMPAGNOLE
100  MASSACRET  GREGOIRE 41 02:48:29 + 00:54:01 M1 M  
101  BELIARD  BRUNO 331 02:48:32 + 00:54:04 M3 M  
102  RUFENACHT  BASTIEN 155 02:48:46 + 00:54:18 ES M  
103  ROULIN  PAUL 39 02:49:03 + 00:54:35 SE M  
104  CARRE  DAVID 323 02:49:10 + 00:54:42 M1 M  
105  FUSARO  HENRI 50 02:49:49 + 00:55:21 M2 M  
106  BURRI  DIDIER 81 02:49:54 + 00:55:26 M2 M  
107  TINLOUT  REGIS 133 02:49:54 + 00:55:26 M1 M  
108  WIDMER  SEBASTIEN 311 02:49:58 + 00:55:30 M1 M  
109  DUBOZ  MICHEL 151 02:50:07 + 00:55:39 M3 M  ALL JURA TRAIL
110  PERRARD  ANTOINE 28 02:51:22 + 00:56:54 SE M  LMA
111  MANDRILLON  LAURENT 45 02:51:29 + 00:57:01 M1 M  ALL JURA TRAIL
112  FUMEY  JEAN MARC 142 02:51:34 + 00:57:06 M1 M  
113  LOCATELLI  GUILLAUME 80 02:51:41 + 00:57:13 SE M  
114  JADIN  YOANN 106 02:51:42 + 00:57:14 SE M  
115  BOURGEOIS  JUSTIN 95 02:52:07 + 00:57:39 SE M  
116  JOUAUX  RUDY 40 02:52:09 + 00:57:41 M1 M  
117  FALBO  ALEXANDRE 161 02:52:14 + 00:57:46 M2 M  
118  BOOS  JEAN PASCAL 19 02:52:38 + 00:58:10 M1 M  JURATHERAPIE
119  MORENO LOPEZ  NORBERT 97 02:52:42 + 00:58:14 SE M  
120  PROST  ETIENNE 303 02:53:08 + 00:58:40 SE M  
121  GUYARD  AURELIEN 162 02:53:30 + 00:59:02 SE M  
122  GUERIN  JEREMY 326 02:53:57 + 00:59:29 SE M  
123  BRETIN  MICKAEL 165 02:54:01 + 00:59:33 SE M  
124  AKKAYA  ERDOGAN 144 02:54:01 + 00:59:33 M3 M  SAPEUR POMPIERS SALINS
125  PERNIN  FABRICE 171 02:57:30 + 01:03:02 M1 M  
126  VAGNEUR  MICHEL 35 02:57:57 + 01:03:29 M2 M  
127  HUG  CATHERINE 153 02:58:32 + 01:04:04 M2 F  CN PONTARLIER
128  MONROLIN  JOHANN 319 02:58:53 + 01:04:25 M1 M  
129  JEUNET  OLIVIER 110 02:59:26 + 01:04:58 SE M  
130  ZACH  ANNE MARIE 132 02:59:36 + 01:05:08 M2 F  
131  HESSE  STEPHANIE 31 02:59:55 + 01:05:27 SE F  TAVAUX
132  ECOCHARD  CATHERINE 8 03:00:43 + 01:06:15 M1 F  
133  MECHIGHEL  CHRISTIAN 72 03:01:01 + 01:06:33 M2 M  RING ATHLETIQUE LEDONIEN
134  ROUSSELLE  DOMINIQUE 16 03:01:19 + 01:06:51 M2 M  PIEDS NICKELES
135  CANTOT  CYRIL 109 03:01:51 + 01:07:23 M1 M  
136  LOUVAT  ALEXANDRE 190 03:01:52 + 01:07:24 ES M  
137  PETOT  BENJAMIN 92 03:01:55 + 01:07:27 SE M  
138  HALBERT  CHRISTIAN 15 03:02:03 + 01:07:35 M3 M  A.C.MARIN
139  GUIDICI  ISABELLE 49 03:02:22 + 01:07:54 M1 F  LONS ATHLE 39
140  BLACHON  JEAN LUC 168 03:02:59 + 01:08:31 M1 M  
141  VACELET  BRUNO 21 03:03:13 + 01:08:45 M1 M  
142  LAZRAK  KHALID 13 03:03:46 + 01:09:18 M1 M  
143  BOUAMRA  STEEVE 313 03:04:02 + 01:09:34 M1 M  
144  VAUZELLE  ALEXANDRE 43 03:04:41 + 01:10:13 M1 M  
145  DEFFRADAS  VANESSA 47 03:04:42 + 01:10:14 SE F  
146  DEFFRADAS  PIERRE ALEXANDRE 48 03:04:43 + 01:10:15 SE M  
147  PERNET  MELANIE 76 03:04:43 + 01:10:15 SE F  
148  KOULMANN  JEAN ARNAUD 178 03:04:49 + 01:10:21 M1 M  
149  JEANNEY  CHRISTIAN 177 03:04:59 + 01:10:31 M2 M  ESPRIT TRAIL AMIS
150  PARIS  LAURIANNE 129 03:05:04 + 01:10:36 SE F  
151  JOLY  GWLADYS 7 03:05:08 + 01:10:40 SE F  JOGGING CLUB DRYAT
152  GIRARDOT  FABRICE 83 03:05:20 + 01:10:52 M2 M  
153  PETITHUGUENIN  SANDRA 70 03:05:36 + 01:11:08 M1 F  
154  VUILLERMOZ  RICHARD 59 03:05:39 + 01:11:11 M1 M  
155  MONROLIN  DELPHINE 320 03:06:32 + 01:12:04 M1 F  
156  GENEVOIX  REGIS 157 03:06:33 + 01:12:05 M2 M  
157  SAUNOT  LAURENCE 17 03:08:12 + 01:13:44 M2 F  
158  PERNIN  SONIA 172 03:08:23 + 01:13:55 M1 F  
159  DUBREZ  PATRICK 184 03:08:33 + 01:14:05 M3 M  FOYER RURAL DE CUVIER TIPAC11
160  LEPRE  DANIEL 112 03:09:20 + 01:14:52 M2 M  
161  GIRARD  MICHEL 181 03:09:31 + 01:15:03 M3 M  
162  MANZONI  MARTIN 22 03:12:15 + 01:17:47 SE M  
163  DORELLE  JEAN FRANCOIS 4 03:12:52 + 01:18:24 M2 M  JOGGING CLUB DRYAT
164  SELLEM  FAYCAL 12 03:13:08 + 01:18:40 SE M  
165  ERTEM  ENGIN 314 03:13:12 + 01:18:44 SE M  
166  BERNARD  MARIE LAURE 316 03:13:37 + 01:19:09 SE F  
167  LANDRIN  DAVID 9 03:13:59 + 01:19:31 SE M  
168  MESNIER  FRANCK 317 03:14:07 + 01:19:39 M1 M  
169  FUSELIER  SOLENE 14 03:14:31 + 01:20:03 SE F  GRAND CHALON ATHLETISME
170  PITTON  MARC 58 03:14:53 + 01:20:25 M1 M  
171  NASSIRI  NASROLLAH 131 03:15:26 + 01:20:58 M1 M  
172  CUENOT  ALEXANDRE 324 03:16:10 + 01:21:42 SE M  
173  MOREL  JEROME 183 03:16:15 + 01:21:47 M1 M  
174  QUIRICO  AURELIE 127 03:16:24 + 01:21:56 SE F  
175  PETOT  DAMIEN 327 03:16:43 + 01:22:15 M2 M  
176  JACQUES  CECILE 79 03:17:08 + 01:22:40 SE F  
177  EPS WILLKOMM  NANCY 32 03:17:18 + 01:22:50 SE F  
178  CATTENOZ  CYRILLE 147 03:18:39 + 01:24:11 M1 M  
179  PUGEAUT  ERIC 123 03:19:50 + 01:25:22 M1 M  
180  MISLIN  JEAN NOEL 332 03:21:39 + 01:27:11 M1 M  
181  BRUEL  GILLES 42 03:22:43 + 01:28:15 M3 M  
182  BURTIN  CINDY 34 03:22:47 + 01:28:19 SE F  
183  PANCHOUT  AMELIE 308 03:22:56 + 01:28:28 SE F  
184  BURRI  MANON 82 03:24:59 + 01:30:31 SE F  
185  CLERGEOT  DAVID 310 03:25:02 + 01:30:34 SE M  
186  THEVENIN  MYRIAM 61 03:26:38 + 01:32:10 SE F  COSMA RUNNING ARCUEIL
187  CUENOT  MELANIE 325 03:27:03 + 01:32:35 SE F  
188  MOUQUOD  SAMUEL 60 03:27:03 + 01:32:35 M1 M  
189  SIGU  CHRISTOPHE 334 03:28:06 + 01:33:38 M1 M  
190  BAUD  NICOLAS 139 03:28:06 + 01:33:38 M1 M  
191  RAVEAU  CHRISTINE 136 03:28:26 + 01:33:58 M2 F  
192  SAMLAL  JIHANE 27 03:28:42 + 01:34:14 SE F  
193  JOURDAN  CHRISTIAN 85 03:28:51 + 01:34:23 M2 M  ALL JURA TRAIL
194  ESCOFFIER  ERIC 23 03:32:35 + 01:38:07 M2 M  
195  MAILLARD  DANIEL 120 03:35:20 + 01:40:52 M2 M  
196  DALOZ  VANESSA 96 03:36:08 + 01:41:40 SE F  
197  DELAUBERT  VALERIE 55 03:37:04 + 01:42:36 M1 F  JOGGING CLUB DRYAT
198  FAIVRE  NOLWENN 44 03:38:20 + 01:43:52 SE F  ELLES TRAIL
199  FAIVRE  GHISLAINE 56 03:38:21 + 01:43:53 M2 F  ELLES TRAIL
200  BRUEL  ROSALIE 52 03:40:29 + 01:46:01 SE F  
201  CHAMBADE  VERONIQUE 138 03:40:43 + 01:46:15 M1 F  GRAND CHALON ATHLETISME
202  CHAMBADE  STEPHANE 137 03:40:45 + 01:46:17 M1 M  GRAND CHALON ATHLETISME
203  DONDENA  HERVE 102 03:42:48 + 01:48:20 M2 M  
204  SKRABACZ  JEAN 150 03:42:51 + 01:48:23 M3 M  
205  TARTAVEZ  SONIA 154 03:44:32 + 01:50:04 M1 F  ALL JURA TRAIL
206  CATTENOZ  CLEMENT 89 03:46:01 + 01:51:33 SE M  
207  LOUTTE  DAMIEN 53 03:48:26 + 01:53:58 SE M  JAMBE DE BOIS
208  GERMAIN  CHRISTEL 25 03:52:03 + 01:57:35 SE F  
209  MOUGET  NADEGE 24 03:52:06 + 01:57:38 SE F  
210  MARQUES  ANNE 54 04:03:49 + 02:09:21 M1 F  JAMBE DE BOIS
211  VIRY  ANNICK 86 04:06:02 + 02:11:34 M3 F  
212  POURILLE  CAROLINE 18 04:23:57 + 02:29:29 SE F  JOGGING CLUB DRYAT
213  CHASSEPOT  CHRISTOPHE 6 04:23:57 + 02:29:29 SE M  
214  DAMAIN  MARIE LINE 57 04:23:57 + 02:29:29 M2 F  

Les résultats vous sont offerts par

Télécharger en pdf

 

 

 

 

 

 

 

 

 

 

 

 

 

 

 

 

 

 

 

 

 

 

 

chronometrage,chronométrage, sportif, chrono, course, course à pied, trail, trails, couse nature, puce, U-DAG, loto